Time;durP1;ratioP1;P1;durP2;ratioP2;P2;SDS_P1;SDS_P2;PMS_P1;PMS_P2;Temp;Humidity;BMP_temperature;BMP_pressure;BME280_temperature;BME280_humidity;BME280_pressure;Samples;Min_cycle;Max_cycle;Signal;HPM_P1;HPM_P2
2022/05/07 00:00:54;;;;;;;7.20;3.47;;;15.00;98.10;;;;;;5070207;28;20491;-67
2022/05/07 00:03:22;;;;;;;4.87;3.07;;;14.90;98.50;;;;;;5070339;28;20870;-69
2022/05/07 00:05:50;;;;;;;7.10;4.60;;;14.90;98.70;;;;;;5070822;28;20491;-68
2022/05/07 00:08:17;;;;;;;5.87;3.20;;;14.80;98.90;;;;;;5070922;28;20449;-69
2022/05/07 00:10:45;;;;;;;7.00;3.30;;;14.80;98.70;;;;;;5070829;28;20469;-68
2022/05/07 00:13:12;;;;;;;6.33;3.40;;;14.80;98.70;;;;;;5070832;28;20456;-69
2022/05/07 00:15:40;;;;;;;6.03;3.47;;;14.90;99.00;;;;;;5070391;28;20460;-69
2022/05/07 00:18:06;;;;;;;6.40;2.93;;;15.00;98.80;;;;;;5070589;28;21051;-69
2022/05/07 00:20:34;;;;;;;8.60;4.07;;;15.00;98.20;;;;;;5070550;28;20464;-67
2022/05/07 00:23:02;;;;;;;5.70;3.70;;;15.00;97.80;;;;;;5070597;28;20461;-70
2022/05/07 00:25:31;;;;;;;6.50;3.80;;;15.00;97.60;;;;;;5069901;28;20957;-69
2022/05/07 00:27:59;;;;;;;7.63;3.93;;;14.90;97.10;;;;;;5070405;28;20457;-68
2022/05/07 00:30:26;;;;;;;8.30;3.83;;;14.80;96.60;;;;;;5070579;28;20895;-67
2022/05/07 00:32:53;;;;;;;8.07;3.63;;;14.70;97.50;;;;;;5070698;28;21192;-69
2022/05/07 00:35:20;;;;;;;4.87;3.20;;;14.70;96.90;;;;;;5070668;28;20799;-66
2022/05/07 00:37:47;;;;;;;5.60;2.93;;;14.70;97.00;;;;;;5070299;28;20934;-68
2022/05/07 00:40:15;;;;;;;6.87;3.57;;;14.60;97.50;;;;;;5070018;28;20918;-68
2022/05/07 00:42:42;;;;;;;5.50;3.30;;;14.50;96.30;;;;;;5070067;28;20445;-69
2022/05/07 00:45:10;;;;;;;7.50;3.87;;;14.40;96.40;;;;;;5069997;28;20460;-67
2022/05/07 00:47:38;;;;;;;5.07;3.10;;;14.30;96.30;;;;;;5070152;28;20748;-71
2022/05/07 00:52:51;;;;;;;6.63;3.33;;;14.20;96.80;;;;;;5069965;28;20432;-66
2022/05/07 00:55:20;;;;;;;6.67;3.23;;;14.10;96.80;;;;;;5069556;28;20445;-68
2022/05/07 00:57:47;;;;;;;7.00;3.07;;;14.00;96.70;;;;;;5069618;28;20457;-70
2022/05/07 01:00:15;;;;;;;7.47;3.80;;;13.90;97.30;;;;;;5069848;28;20797;-68
2022/05/07 01:02:42;;;;;;;7.60;3.83;;;13.90;97.10;;;;;;5069838;28;20476;-68
2022/05/07 01:05:11;;;;;;;6.60;3.73;;;14.00;97.00;;;;;;5069418;28;20827;-69
2022/05/07 01:07:38;;;;;;;8.93;4.23;;;14.00;97.20;;;;;;5069579;28;20453;-67
2022/05/07 01:10:06;;;;;;;5.63;3.30;;;14.00;96.50;;;;;;5069818;28;20444;-69
2022/05/07 01:12:36;;;;;;;7.50;2.80;;;14.00;96.60;;;;;;5068923;28;20477;-68
2022/05/07 01:15:04;;;;;;;10.40;3.67;;;14.10;96.30;;;;;;5069575;28;20453;-67
2022/05/07 01:17:33;;;;;;;7.17;3.77;;;14.10;96.70;;;;;;5069772;28;20481;-65
2022/05/07 01:20:00;;;;;;;6.47;3.50;;;14.20;96.60;;;;;;5069642;28;20567;-67
2022/05/07 01:22:30;;;;;;;6.33;3.47;;;14.30;96.50;;;;;;5069258;28;20538;-70
2022/05/07 01:24:59;;;;;;;7.50;4.27;;;14.30;96.90;;;;;;5069362;28;20625;-69
2022/05/07 01:27:26;;;;;;;6.10;3.43;;;14.30;96.90;;;;;;5069485;28;20460;-70
2022/05/07 01:29:53;;;;;;;8.03;3.60;;;14.40;96.70;;;;;;5069377;28;20456;-68
2022/05/07 01:32:20;;;;;;;8.97;3.40;;;14.40;96.70;;;;;;5069179;28;20464;-69
2022/05/07 01:34:47;;;;;;;7.10;3.00;;;14.30;97.10;;;;;;5069482;28;20453;-68
2022/05/07 01:37:15;;;;;;;5.50;3.00;;;14.30;96.80;;;;;;5069467;28;20453;-68
2022/05/07 01:39:43;;;;;;;6.67;2.93;;;14.40;96.50;;;;;;5069560;28;20985;-71
2022/05/07 01:42:10;;;;;;;8.60;3.67;;;14.40;96.30;;;;;;5069340;28;20480;-70
2022/05/07 01:44:37;;;;;;;8.37;3.60;;;14.50;96.10;;;;;;5069183;28;20960;-68
2022/05/07 01:49:49;;;;;;;5.90;3.20;;;14.50;95.80;;;;;;5069449;28;20448;-70
2022/05/07 01:52:16;;;;;;;6.47;2.57;;;14.50;96.10;;;;;;5068973;28;20583;-68
2022/05/07 01:54:45;;;;;;;9.27;4.00;;;14.40;96.00;;;;;;5069069;28;20452;-71
2022/05/07 01:57:12;;;;;;;5.83;3.00;;;14.40;95.40;;;;;;5069008;28;20453;-69
2022/05/07 01:59:39;;;;;;;7.27;3.43;;;14.30;96.00;;;;;;5068759;28;20496;-70
2022/05/07 02:02:06;;;;;;;7.17;3.30;;;14.30;95.80;;;;;;5068945;28;20866;-70
2022/05/07 02:04:33;;;;;;;6.87;3.40;;;14.30;95.80;;;;;;5068944;28;20485;-69
2022/05/07 02:07:00;;;;;;;6.80;4.23;;;14.20;95.40;;;;;;5069201;28;20455;-68
2022/05/07 02:09:27;;;;;;;6.17;3.40;;;14.20;95.80;;;;;;5069092;28;20445;-67
2022/05/07 02:11:56;;;;;;;6.93;3.00;;;14.10;96.10;;;;;;5068649;28;20472;-69
2022/05/07 02:14:23;;;;;;;6.80;3.73;;;14.10;96.00;;;;;;5068755;28;20452;-68
2022/05/07 02:16:50;;;;;;;4.50;2.90;;;14.00;96.10;;;;;;5069246;28;20449;-70
2022/05/07 02:19:17;;;;;;;4.53;2.83;;;14.00;96.30;;;;;;5069032;28;20488;-68
2022/05/07 02:21:44;;;;;;;7.57;3.53;;;14.00;95.80;;;;;;5069043;28;20517;-70
2022/05/07 02:24:11;;;;;;;7.10;3.80;;;14.00;96.20;;;;;;5068829;28;20863;-69
2022/05/07 02:26:38;;;;;;;6.87;3.13;;;13.90;96.10;;;;;;5072447;28;20465;-68
2022/05/07 02:29:06;;;;;;;6.67;3.20;;;13.90;96.20;;;;;;5072349;28;20502;-68
2022/05/07 02:31:33;;;;;;;6.27;3.43;;;13.80;96.00;;;;;;5072706;28;20472;-67
2022/05/07 02:34:01;;;;;;;7.23;3.20;;;13.70;96.40;;;;;;5072861;28;20509;-67
2022/05/07 02:36:28;;;;;;;6.00;3.50;;;13.70;96.40;;;;;;5072626;28;20515;-67
2022/05/07 02:38:55;;;;;;;7.03;3.30;;;13.60;96.60;;;;;;5072441;28;20495;-68
2022/05/07 02:44:08;;;;;;;9.40;3.47;;;13.30;97.40;;;;;;5072453;28;20425;-68
2022/05/07 02:46:35;;;;;;;7.80;4.37;;;13.50;97.90;;;;;;5072255;28;20464;-69
2022/05/07 02:49:02;;;;;;;7.43;3.10;;;13.60;98.00;;;;;;5072512;28;20502;-66
2022/05/07 02:51:29;;;;;;;6.37;3.40;;;13.70;98.00;;;;;;5072218;28;20468;-68
2022/05/07 02:53:57;;;;;;;7.13;4.10;;;13.70;97.50;;;;;;5072274;28;20460;-67
2022/05/07 02:56:24;;;;;;;7.17;3.23;;;13.70;97.80;;;;;;5072347;28;20540;-68
2022/05/07 02:58:51;;;;;;;9.10;3.10;;;13.70;97.60;;;;;;5071983;28;20492;-69
2022/05/07 03:01:19;;;;;;;8.97;3.93;;;13.80;97.70;;;;;;5072231;28;20469;-66
2022/05/07 03:03:46;;;;;;;8.03;3.40;;;13.80;97.70;;;;;;5072101;28;20457;-67
2022/05/07 03:06:13;;;;;;;7.73;3.30;;;13.80;97.70;;;;;;5071958;28;20868;-67
2022/05/07 03:08:41;;;;;;;5.87;3.53;;;13.80;97.80;;;;;;5071883;28;20456;-69
2022/05/07 03:11:08;;;;;;;5.90;3.77;;;13.70;98.10;;;;;;5071809;28;20527;-68
2022/05/07 03:13:35;;;;;;;7.07;3.60;;;13.70;98.60;;;;;;5071974;28;20460;-68
2022/05/07 03:16:02;;;;;;;7.30;3.73;;;13.70;98.30;;;;;;5072068;28;20445;-66
2022/05/07 03:18:30;;;;;;;10.93;3.60;;;13.80;98.30;;;;;;5071956;28;20815;-67
2022/05/07 03:20:58;;;;;;;6.40;3.07;;;13.70;98.50;;;;;;5071487;28;20477;-68
2022/05/07 03:23:25;;;;;;;8.50;3.30;;;13.80;98.70;;;;;;5071786;28;20449;-66
2022/05/07 03:25:52;;;;;;;8.90;3.60;;;13.70;98.90;;;;;;5071181;28;20476;-69
2022/05/07 03:28:20;;;;;;;5.57;3.40;;;13.70;99.20;;;;;;5071590;28;20456;-67
2022/05/07 03:30:47;;;;;;;7.87;3.60;;;13.70;99.20;;;;;;5071140;28;20457;-69
2022/05/07 03:33:14;;;;;;;6.20;3.50;;;13.80;98.90;;;;;;5071424;28;20453;-68
2022/05/07 03:35:43;;;;;;;6.20;3.47;;;13.70;98.90;;;;;;5071317;28;20449;-70
2022/05/07 03:38:10;;;;;;;9.10;3.80;;;13.70;99.20;;;;;;5071528;28;20855;-68
2022/05/07 03:40:38;;;;;;;7.30;4.10;;;13.80;99.30;;;;;;5071466;28;20489;-70
2022/05/07 03:43:05;;;;;;;7.40;4.07;;;13.90;99.70;;;;;;5071399;28;20460;-71
2022/05/07 03:45:33;;;;;;;8.10;3.77;;;13.90;99.60;;;;;;5071381;28;20457;-67
2022/05/07 03:48:00;;;;;;;5.60;3.70;;;13.90;99.90;;;;;;5071391;28;20499;-69
2022/05/07 03:50:27;;;;;;;5.77;3.40;;;13.80;99.90;;;;;;5070989;28;20460;-68
2022/05/07 03:55:41;;;;;;;10.87;3.77;;;13.90;99.90;;;;;;5071264;28;20461;-70
2022/05/07 03:58:10;;;;;;;11.00;4.33;;;14.00;99.90;;;;;;5071219;28;20465;-69
2022/05/07 04:00:37;;;;;;;6.30;3.40;;;13.90;99.90;;;;;;5071099;28;20575;-66
2022/05/07 04:03:05;;;;;;;7.90;3.70;;;13.80;99.90;;;;;;5070842;28;20453;-69
2022/05/07 04:05:32;;;;;;;9.80;4.00;;;13.80;99.90;;;;;;5070776;28;20924;-69
2022/05/07 04:08:00;;;;;;;6.47;4.00;;;13.80;99.90;;;;;;5071182;28;20453;-68
2022/05/07 04:10:28;;;;;;;7.30;4.07;;;13.90;99.90;;;;;;5070914;28;20460;-70
2022/05/07 04:12:55;;;;;;;9.97;4.07;;;14.00;99.90;;;;;;5070909;28;20487;-67
2022/05/07 04:15:23;;;;;;;6.20;3.90;;;14.10;99.90;;;;;;5070751;28;20459;-70
2022/05/07 04:17:50;;;;;;;7.20;3.70;;;14.00;99.90;;;;;;5070618;28;20868;-68
2022/05/07 04:20:18;;;;;;;6.50;3.37;;;14.10;99.90;;;;;;5070352;28;20589;-71
2022/05/07 04:22:45;;;;;;;8.63;3.90;;;14.20;99.90;;;;;;5070534;28;20796;-70
2022/05/07 04:25:13;;;;;;;10.07;3.87;;;14.30;99.90;;;;;;5070380;28;20941;-70
2022/05/07 04:27:41;;;;;;;9.63;4.10;;;14.30;99.90;;;;;;5070417;28;20929;-69
2022/05/07 04:30:09;;;;;;;7.40;4.20;;;14.30;99.90;;;;;;5070384;28;20566;-69
2022/05/07 04:32:36;;;;;;;9.00;5.67;;;14.40;99.90;;;;;;5070463;28;20472;-69
2022/05/07 04:35:03;;;;;;;8.10;4.87;;;14.50;99.90;;;;;;5070175;28;20449;-69
2022/05/07 04:37:30;;;;;;;9.73;5.60;;;14.60;99.90;;;;;;5070225;28;20502;-68
2022/05/07 04:39:57;;;;;;;10.63;5.87;;;14.70;99.90;;;;;;5069936;28;20484;-70
2022/05/07 04:42:26;;;;;;;13.17;4.63;;;14.60;99.90;;;;;;5069842;28;20477;-69
2022/05/07 04:44:53;;;;;;;11.53;5.60;;;14.70;99.90;;;;;;5070341;28;20457;-67
2022/05/07 04:47:20;;;;;;;9.93;6.37;;;14.90;99.90;;;;;;5069786;28;20472;-70
2022/05/07 04:49:47;;;;;;;13.93;8.13;;;15.00;99.90;;;;;;5070029;28;20503;-68
2022/05/07 04:52:14;;;;;;;16.47;9.27;;;15.10;99.90;;;;;;5070068;28;20846;-71
2022/05/07 04:54:41;;;;;;;15.50;8.60;;;15.10;99.90;;;;;;5069704;28;20561;-69
2022/05/07 04:57:08;;;;;;;9.40;6.90;;;15.20;99.90;;;;;;5069664;28;20460;-67
2022/05/07 04:59:36;;;;;;;10.23;6.73;;;15.20;99.90;;;;;;5069841;28;20484;-68
2022/05/07 05:02:04;;;;;;;9.57;6.00;;;15.20;99.90;;;;;;5069865;28;20477;-68
2022/05/07 05:04:31;;;;;;;12.37;6.40;;;15.30;99.90;;;;;;5069398;28;20484;-69
2022/05/07 05:06:58;;;;;;;7.47;4.90;;;15.20;99.90;;;;;;5069794;28;20783;-66
2022/05/07 05:09:25;;;;;;;10.10;4.50;;;15.30;99.90;;;;;;5069503;28;20484;-66
2022/05/07 05:11:52;;;;;;;12.03;4.40;;;15.40;99.90;;;;;;5069472;28;20468;-70
2022/05/07 05:17:05;;;;;;;7.40;3.90;;;15.60;99.90;;;;;;5069526;28;20502;-68
2022/05/07 05:19:32;;;;;;;10.20;5.37;;;15.60;99.90;;;;;;5069260;28;20493;-69
2022/05/07 05:21:59;;;;;;;10.47;5.37;;;15.60;99.90;;;;;;5069452;28;20473;-68
2022/05/07 05:24:26;;;;;;;8.43;4.50;;;15.60;99.90;;;;;;5069426;28;20449;-69
2022/05/07 05:26:53;;;;;;;8.40;6.60;;;15.70;99.90;;;;;;5069386;28;20518;-68
2022/05/07 05:29:20;;;;;;;8.53;6.00;;;15.80;99.90;;;;;;5069651;28;20455;-70
2022/05/07 05:31:47;;;;;;;9.10;5.50;;;15.90;99.90;;;;;;5069554;28;20965;-69
2022/05/07 05:34:15;;;;;;;9.00;5.57;;;16.00;99.90;;;;;;5069342;28;20555;-65
2022/05/07 05:36:42;;;;;;;8.23;5.13;;;16.10;99.90;;;;;;5069414;28;20452;-67
2022/05/07 05:39:10;;;;;;;15.37;8.10;;;16.10;99.90;;;;;;5069407;28;20456;-66
2022/05/07 05:41:39;;;;;;;8.90;5.93;;;16.10;99.90;;;;;;5069148;28;20484;-69
2022/05/07 05:44:07;;;;;;;7.70;5.13;;;16.30;99.90;;;;;;5068884;28;20452;-67
2022/05/07 05:46:34;;;;;;;9.23;6.77;;;16.30;99.60;;;;;;5069486;28;20460;-70
2022/05/07 05:49:01;;;;;;;7.70;5.50;;;16.20;99.90;;;;;;5069169;28;20506;-69
2022/05/07 05:51:29;;;;;;;10.20;6.60;;;16.20;99.90;;;;;;5069136;28;20985;-66
2022/05/07 05:53:57;;;;;;;7.50;5.00;;;16.40;99.80;;;;;;5069348;28;20486;-69
2022/05/07 05:56:24;;;;;;;7.13;4.83;;;16.50;99.30;;;;;;5069107;28;20452;-67
2022/05/07 05:58:51;;;;;;;8.30;5.57;;;16.60;99.40;;;;;;5069219;28;20449;-67
2022/05/07 06:01:18;;;;;;;20.00;5.37;;;16.70;99.40;;;;;;5072411;28;20492;-70
2022/05/07 06:03:45;;;;;;;9.40;5.20;;;16.90;98.80;;;;;;5072898;28;20457;-68
2022/05/07 06:06:12;;;;;;;6.90;4.57;;;17.10;98.50;;;;;;5073197;28;20456;-70
2022/05/07 06:08:42;;;;;;;6.57;4.73;;;17.30;98.30;;;;;;5073158;28;20933;-70
2022/05/07 06:11:11;;;;;;;9.57;5.27;;;17.50;98.50;;;;;;5072898;28;20500;-66
2022/05/07 06:13:38;;;;;;;7.07;4.83;;;17.50;97.80;;;;;;5073430;28;20981;-66
2022/05/07 06:16:05;;;;;;;7.67;4.57;;;17.50;97.90;;;;;;5072825;28;20461;-70
2022/05/07 06:18:32;;;;;;;8.37;5.03;;;17.60;97.90;;;;;;5072707;28;20448;-67
2022/05/07 06:21:01;;;;;;;11.43;5.37;;;17.60;97.50;;;;;;5072779;28;20484;-66
2022/05/07 06:23:29;;;;;;;10.60;5.37;;;17.80;97.40;;;;;;5072880;28;20453;-70
2022/05/07 06:28:44;;;;;;;7.70;5.13;;;17.80;96.60;;;;;;5054923;28;20440;-70
2022/05/07 06:31:11;;;;;;;8.70;5.37;;;18.00;96.50;;;;;;5072737;28;20488;-69
2022/05/07 06:33:39;;;;;;;8.83;6.20;;;17.90;96.10;;;;;;5072608;28;21006;-68
2022/05/07 06:36:07;;;;;;;9.90;7.23;;;18.10;96.30;;;;;;5072718;28;20534;-68
2022/05/07 06:38:34;;;;;;;18.30;5.40;;;18.20;95.70;;;;;;5072585;28;20467;-69
2022/05/07 06:41:05;;;;;;;11.13;6.20;;;18.40;96.00;;;;;;5072073;28;21013;-70
2022/05/07 06:43:32;;;;;;;9.40;5.07;;;18.40;95.60;;;;;;5072500;28;20543;-69
2022/05/07 06:46:00;;;;;;;6.87;4.23;;;18.60;95.40;;;;;;5072529;28;20467;-67
2022/05/07 06:48:27;;;;;;;9.70;5.27;;;18.70;95.00;;;;;;5072089;28;20461;-69
2022/05/07 06:50:55;;;;;;;13.03;4.73;;;18.70;94.40;;;;;;5072178;28;20476;-69
2022/05/07 06:53:22;;;;;;;8.93;5.20;;;18.80;94.50;;;;;;5072363;28;20449;-67
2022/05/07 06:55:59;;;;;;;14.53;5.70;;;18.90;93.60;;;;;;5072283;28;20450;-70
2022/05/07 06:58:29;;;;;;;7.77;4.80;;;18.90;93.80;;;;;;5072514;28;20892;-67
2022/05/07 07:00:57;;;;;;;7.43;5.17;;;18.80;93.20;;;;;;5072007;28;20961;-67
2022/05/07 07:03:25;;;;;;;11.00;4.47;;;18.90;93.70;;;;;;5071600;28;20500;-69
2022/05/07 07:05:54;;;;;;;7.10;4.90;;;19.00;93.50;;;;;;5071802;28;20525;-70
2022/05/07 07:08:21;;;;;;;10.90;5.43;;;19.10;93.30;;;;;;5072094;28;20468;-70
2022/05/07 07:10:48;;;;;;;8.80;5.07;;;19.10;93.30;;;;;;5071259;28;20461;-71
2022/05/07 07:13:16;;;;;;;10.20;5.00;;;19.10;92.60;;;;;;5072142;28;20463;-69
2022/05/07 07:15:45;;;;;;;10.27;4.53;;;19.30;92.60;;;;;;5072163;28;20507;-68
2022/05/07 07:18:12;;;;;;;8.30;5.07;;;19.50;92.80;;;;;;5072062;28;21000;-70
2022/05/07 07:20:40;;;;;;;7.80;4.93;;;19.60;91.80;;;;;;5071520;28;20492;-68
2022/05/07 07:23:10;;;;;;;8.83;5.00;;;19.70;92.10;;;;;;5072419;28;20547;-69
2022/05/07 07:25:37;;;;;;;12.07;5.20;;;19.80;91.50;;;;;;5071531;28;20456;-66
2022/05/07 07:28:04;;;;;;;8.90;5.47;;;19.80;90.80;;;;;;5072224;28;20531;-68
2022/05/07 07:30:31;;;;;;;11.83;5.13;;;19.90;90.70;;;;;;5071654;28;20449;-68
2022/05/07 07:33:00;;;;;;;8.37;4.97;;;20.00;90.70;;;;;;5071433;28;20448;-70
2022/05/07 07:35:27;;;;;;;7.57;5.40;;;20.20;91.00;;;;;;5071404;28;20449;-70
2022/05/07 07:37:56;;;;;;;15.43;5.60;;;20.60;90.50;;;;;;5071486;28;20453;-71
2022/05/07 07:40:23;;;;;;;9.93;5.00;;;20.70;90.60;;;;;;5071553;28;20569;-69
2022/05/07 07:42:50;;;;;;;8.60;5.17;;;20.70;90.10;;;;;;5071798;28;20804;-68
2022/05/07 07:48:03;;;;;;;10.40;4.93;;;20.90;85.60;;;;;;5071265;28;20432;-65
2022/05/07 07:50:32;;;;;;;7.87;4.67;;;21.10;86.70;;;;;;5071135;28;21005;-68
2022/05/07 07:53:01;;;;;;;11.67;5.73;;;21.30;87.10;;;;;;5071417;28;20938;-66
2022/05/07 07:55:29;;;;;;;7.87;4.83;;;21.50;83.90;;;;;;5071226;28;20518;-67
2022/05/07 07:57:57;;;;;;;9.90;4.93;;;21.70;84.00;;;;;;5071116;28;20464;-66
2022/05/07 08:00:25;;;;;;;7.50;4.43;;;21.90;82.00;;;;;;5071101;28;20477;-67
2022/05/07 08:02:54;;;;;;;7.03;3.80;;;22.00;80.60;;;;;;5071172;28;20478;-69
2022/05/07 08:05:24;;;;;;;7.40;4.20;;;21.70;79.00;;;;;;5070677;28;20493;-68
2022/05/07 08:13:21;;;;;;;6.63;4.63;;;21.70;78.10;;;;;;5071166;28;20616;-70
2022/05/07 08:15:48;;;;;;;8.37;4.87;;;22.00;78.40;;;;;;5070844;28;20448;-68
2022/05/07 08:18:15;;;;;;;8.20;3.93;;;22.00;76.80;;;;;;5070874;28;20463;-70
2022/05/07 08:20:44;;;;;;;6.70;4.67;;;22.20;75.60;;;;;;5070630;28;20496;-69
2022/05/07 08:23:12;;;;;;;5.80;4.03;;;22.10;74.80;;;;;;5069460;28;20887;-70
2022/05/07 08:25:39;;;;;;;7.00;4.77;;;22.10;75.10;;;;;;5070308;28;20479;-68
2022/05/07 08:28:06;;;;;;;10.73;5.50;;;22.00;74.10;;;;;;5070443;28;20464;-70
2022/05/07 08:30:36;;;;;;;8.50;3.97;;;21.90;74.30;;;;;;5070315;28;20453;-69
2022/05/07 08:33:04;;;;;;;7.30;3.73;;;21.80;74.10;;;;;;5070609;28;20479;-67
2022/05/07 08:35:31;;;;;;;5.83;3.80;;;21.70;74.20;;;;;;5070220;28;20480;-69
2022/05/07 08:38:00;;;;;;;7.10;4.03;;;21.60;72.90;;;;;;5070270;28;20453;-66
2022/05/07 08:40:28;;;;;;;6.20;3.60;;;21.30;74.00;;;;;;5070357;28;20452;-71
2022/05/07 08:42:55;;;;;;;6.20;4.00;;;21.30;74.60;;;;;;5070453;28;20448;-70
2022/05/07 08:45:22;;;;;;;7.37;3.50;;;21.40;73.90;;;;;;5070213;28;20453;-70
2022/05/07 08:47:53;;;;;;;7.57;4.23;;;21.30;73.50;;;;;;5070237;28;20463;-67
2022/05/07 08:50:21;;;;;;;7.93;3.70;;;21.40;73.70;;;;;;5069803;28;20460;-69
2022/05/07 08:52:49;;;;;;;5.93;3.70;;;21.50;74.20;;;;;;5069914;28;20445;-69
2022/05/07 08:55:19;;;;;;;6.90;3.43;;;21.60;74.10;;;;;;5070130;28;20456;-69
2022/05/07 08:57:48;;;;;;;6.83;3.60;;;21.50;72.50;;;;;;5070166;28;20457;-71
2022/05/07 09:00:17;;;;;;;6.17;3.70;;;21.60;72.80;;;;;;5069928;28;20552;-70
2022/05/07 09:02:46;;;;;;;6.30;3.30;;;21.60;73.90;;;;;;5069567;28;20556;-67
2022/05/07 09:05:16;;;;;;;7.00;3.43;;;21.40;74.00;;;;;;5069734;28;20534;-67
2022/05/07 09:07:53;;;;;;;9.53;4.73;;;21.50;74.20;;;;;;5069464;28;20453;-69
2022/05/07 09:10:26;;;;;;;5.60;3.70;;;21.60;73.00;;;;;;5069815;28;20468;-68
2022/05/07 09:12:53;;;;;;;6.30;3.70;;;21.70;72.40;;;;;;5069450;28;20537;-68
2022/05/07 09:15:20;;;;;;;6.43;3.83;;;21.70;71.20;;;;;;5069579;28;20452;-70
2022/05/07 09:17:48;;;;;;;7.50;3.20;;;21.80;71.30;;;;;;5069404;28;20959;-70
2022/05/07 09:20:18;;;;;;;6.67;3.50;;;21.80;69.10;;;;;;5069652;28;20469;-66
2022/05/07 09:22:54;;;;;;;5.87;3.47;;;22.10;70.00;;;;;;5069332;28;20496;-67
2022/05/07 09:25:24;;;;;;;5.50;3.30;;;22.10;67.40;;;;;;5069228;28;20469;-69
2022/05/07 09:27:54;;;;;;;6.73;3.77;;;22.10;67.70;;;;;;5069535;28;20449;-68
2022/05/07 09:30:25;;;;;;;5.30;3.07;;;22.30;67.30;;;;;;5069395;28;20473;-67
2022/05/07 09:32:53;;;;;;;7.03;2.93;;;22.50;66.90;;;;;;5069561;28;20476;-67
2022/05/07 09:38:06;;;;;;;7.50;4.40;;;23.20;67.10;;;;;;5069131;28;20519;-69
2022/05/07 09:40:39;;;;;;;6.47;3.63;;;23.00;65.40;;;;;;5069129;28;20530;-69
2022/05/07 09:43:08;;;;;;;6.53;3.87;;;23.20;67.10;;;;;;5069354;28;20787;-68
2022/05/07 09:45:37;;;;;;;7.03;3.90;;;23.40;67.50;;;;;;5069180;28;20453;-69
2022/05/07 09:48:05;;;;;;;10.43;3.47;;;23.60;65.80;;;;;;5069440;28;20852;-69
2022/05/07 09:50:47;;;;;;;7.20;4.63;;;23.50;63.20;;;;;;5068838;28;20465;-70
2022/05/07 09:58:48;;;;;;;6.60;3.53;;;23.70;64.20;;;;;;5069240;28;20437;-70
2022/05/07 10:01:33;;;;;;;7.10;3.60;;;23.90;62.10;;;;;;5068777;28;20492;-69
2022/05/07 10:04:42;;;;;;;10.93;4.70;;;23.90;58.40;;;;;;5068613;28;20472;-67
2022/05/07 10:07:20;;;;;;;5.33;3.07;;;24.00;59.60;;;;;;5043779;28;21007;-70
2022/05/07 10:10:02;;;;;;;4.73;2.90;;;24.10;58.00;;;;;;5069002;28;20444;-69
2022/05/07 10:12:31;;;;;;;5.57;2.97;;;23.90;58.20;;;;;;5069187;28;20445;-70
2022/05/07 10:15:06;;;;;;;6.20;3.03;;;23.80;57.70;;;;;;5068482;28;20453;-68
2022/05/07 10:17:34;;;;;;;7.17;3.20;;;23.60;55.60;;;;;;5068869;28;20894;-67
2022/05/07 10:20:05;;;;;;;6.73;3.30;;;23.50;57.80;;;;;;5068766;28;21056;-69
2022/05/07 10:22:34;;;;;;;5.80;3.37;;;23.90;59.10;;;;;;5068531;28;20488;-67
2022/05/07 10:25:06;;;;;;;7.00;3.37;;;24.10;59.70;;;;;;5068392;28;20453;-69
2022/05/07 10:27:35;;;;;;;6.40;3.70;;;24.40;59.70;;;;;;5068965;28;20461;-68
2022/05/07 10:30:10;;;;;;;6.93;3.30;;;24.60;57.90;;;;;;5068778;28;20867;-69
2022/05/07 10:32:58;;;;;;;5.17;3.43;;;24.90;57.50;;;;;;5068621;28;20452;-66
2022/05/07 10:35:40;;;;;;;6.00;3.33;;;25.00;58.30;;;;;;5068736;28;20926;-69
2022/05/07 10:38:07;;;;;;;6.00;3.40;;;25.30;58.20;;;;;;5068663;28;20453;-68
2022/05/07 10:40:34;;;;;;;6.90;3.40;;;25.40;53.90;;;;;;5068442;28;20561;-68
2022/05/07 10:43:04;;;;;;;8.87;3.83;;;25.40;54.20;;;;;;5068604;28;20574;-67
2022/05/07 10:45:41;;;;;;;9.93;5.07;;;25.50;50.90;;;;;;5069107;28;20564;-66
2022/05/07 10:48:18;;;;;;;6.83;3.20;;;25.00;50.60;;;;;;5072622;28;20535;-68
2022/05/07 10:50:52;;;;;;;7.77;3.10;;;25.10;51.00;;;;;;5071747;28;20552;-67
2022/05/07 10:53:20;;;;;;;5.67;3.20;;;25.40;52.30;;;;;;5072230;28;20457;-69
2022/05/07 10:55:50;;;;;;;5.80;3.60;;;25.80;51.80;;;;;;5072194;28;20449;-70
2022/05/07 10:58:27;;;;;;;14.90;3.63;;;26.10;51.60;;;;;;5071892;28;20482;-69
2022/05/07 11:00:56;;;;;;;9.20;3.87;;;26.20;50.60;;;;;;5071787;28;20481;-67
2022/05/07 11:03:26;;;;;;;8.60;3.40;;;26.30;48.50;;;;;;5072279;28;20463;-70
2022/05/07 11:05:59;;;;;;;12.70;3.87;;;26.30;48.20;;;;;;5071675;28;21431;-69
2022/05/07 11:08:29;;;;;;;10.10;3.83;;;26.50;48.30;;;;;;5072180;28;20476;-68
2022/05/07 11:11:05;;;;;;;14.27;3.67;;;26.40;49.70;;;;;;5072087;28;20859;-71
2022/05/07 11:13:38;;;;;;;7.50;2.60;;;26.30;48.80;;;;;;5071409;28;20515;-69
2022/05/07 11:16:05;;;;;;;5.30;2.93;;;26.10;46.10;;;;;;5071829;28;20481;-66
2022/05/07 11:18:34;;;;;;;5.83;2.97;;;25.90;46.50;;;;;;5071853;28;20782;-68
2022/05/07 11:21:03;;;;;;;6.97;3.20;;;25.90;47.00;;;;;;5071420;28;21037;-70
2022/05/07 11:23:35;;;;;;;4.50;2.60;;;25.80;44.70;;;;;;5071603;28;20901;-67
2022/05/07 11:26:11;;;;;;;6.53;2.53;;;25.80;41.50;;;;;;5071191;28;20461;-67
2022/05/07 11:28:41;;;;;;;4.77;2.60;;;25.90;36.90;;;;;;5071329;28;20821;-67
2022/05/07 11:31:08;;;;;;;6.10;2.63;;;26.20;36.30;;;;;;5071512;28;20507;-69
2022/05/07 11:33:35;;;;;;;6.20;2.60;;;26.40;35.70;;;;;;5071609;28;20480;-69
2022/05/07 11:36:06;;;;;;;6.20;2.27;;;26.50;35.90;;;;;;5071585;28;20845;-69
2022/05/07 11:38:34;;;;;;;5.80;3.00;;;26.60;37.50;;;;;;5071576;28;21033;-68
2022/05/07 11:41:12;;;;;;;5.93;2.97;;;26.90;38.20;;;;;;5071431;28;20508;-68
2022/05/07 11:46:24;;;;;;;4.90;2.40;;;27.10;39.10;;;;;;5049720;28;20445;-70
2022/05/07 11:48:51;;;;;;;4.23;2.27;;;27.10;38.70;;;;;;5070837;28;20476;-68
2022/05/07 11:51:26;;;;;;;5.73;3.27;;;27.20;39.30;;;;;;5071174;28;20530;-69
2022/05/07 11:53:53;;;;;;;7.50;2.80;;;27.20;39.50;;;;;;5071384;28;20528;-66
2022/05/07 11:56:20;;;;;;;7.63;2.90;;;27.30;38.70;;;;;;5071319;28;20452;-69
2022/05/07 11:58:51;;;;;;;5.17;3.07;;;27.30;37.50;;;;;;5070066;28;20452;-69
2022/05/07 12:01:20;;;;;;;6.73;2.70;;;27.30;36.50;;;;;;5071162;28;20467;-67
2022/05/07 12:03:47;;;;;;;5.80;2.50;;;27.50;36.00;;;;;;5070768;28;20449;-69
2022/05/07 12:06:25;;;;;;;6.27;2.43;;;27.50;36.00;;;;;;5070458;28;20455;-69
2022/05/07 12:08:52;;;;;;;5.10;2.27;;;27.30;34.00;;;;;;5071190;28;20444;-69
2022/05/07 12:11:20;;;;;;;5.07;2.20;;;27.10;34.10;;;;;;5070947;28;20526;-69
2022/05/07 12:13:49;;;;;;;6.73;2.30;;;27.10;34.90;;;;;;5070647;28;20894;-67
2022/05/07 12:19:01;;;;;;;5.70;2.87;;;27.30;34.20;;;;;;5070819;28;20519;-67
2022/05/07 12:29:52;;;;;;;6.10;2.60;;;26.80;34.00;;;;;;5070659;28;20938;-70
2022/05/07 12:32:20;;;;;;;7.77;2.63;;;26.60;32.20;;;;;;5070591;28;20473;-68
2022/05/07 12:34:47;;;;;;;5.80;2.90;;;26.10;33.00;;;;;;5070337;28;21144;-65
2022/05/07 12:37:15;;;;;;;6.33;2.77;;;25.80;34.20;;;;;;5070027;28;20445;-71
2022/05/07 12:39:42;;;;;;;5.07;2.70;;;25.90;34.30;;;;;;5070375;28;20568;-68
2022/05/07 12:42:11;;;;;;;5.13;2.47;;;26.10;34.20;;;;;;5069924;28;20493;-68
2022/05/07 12:44:39;;;;;;;5.63;2.90;;;26.20;34.70;;;;;;5070040;28;20464;-70
2022/05/07 12:47:07;;;;;;;5.80;2.77;;;26.10;34.60;;;;;;5070221;28;20449;-68
2022/05/07 12:49:37;;;;;;;6.43;2.70;;;25.40;34.90;;;;;;5069975;28;20940;-67
2022/05/07 12:52:07;;;;;;;4.27;2.23;;;25.40;36.10;;;;;;5069814;28;20980;-66
2022/05/07 12:54:35;;;;;;;5.83;2.53;;;25.90;36.00;;;;;;5069979;28;20855;-67
2022/05/07 12:57:02;;;;;;;4.90;2.50;;;26.10;36.50;;;;;;5070069;28;20834;-70
2022/05/07 12:59:30;;;;;;;6.87;3.10;;;26.50;35.40;;;;;;5070005;28;20958;-70
2022/05/07 13:01:57;;;;;;;5.30;2.53;;;26.50;35.80;;;;;;5069842;28;20488;-67
2022/05/07 13:04:26;;;;;;;5.10;2.90;;;26.40;35.90;;;;;;5069682;28;20586;-69
2022/05/07 13:06:53;;;;;;;6.20;2.97;;;26.60;37.90;;;;;;5069921;28;20465;-69
2022/05/07 13:09:20;;;;;;;7.23;3.40;;;26.50;37.00;;;;;;5069554;28;20559;-66
2022/05/07 13:11:48;;;;;;;6.70;3.17;;;26.40;38.30;;;;;;5069230;28;20564;-69
2022/05/07 13:14:15;;;;;;;7.70;3.87;;;26.60;40.10;;;;;;5069944;28;20453;-69
2022/05/07 13:16:42;;;;;;;4.43;2.63;;;27.10;40.40;;;;;;5069799;28;20484;-69
2022/05/07 13:19:09;;;;;;;7.30;4.00;;;27.40;39.50;;;;;;5069522;28;20449;-68
2022/05/07 13:21:37;;;;;;;7.30;3.10;;;27.10;37.50;;;;;;5069392;28;20961;-67
2022/05/07 13:24:05;;;;;;;6.43;2.73;;;26.90;38.30;;;;;;5069460;28;20456;-66
2022/05/07 13:26:32;;;;;;;7.27;3.00;;;27.20;38.80;;;;;;5069318;28;20460;-69
2022/05/07 13:28:59;;;;;;;7.50;3.70;;;27.50;37.30;;;;;;5069622;28;20457;-68
2022/05/07 13:31:26;;;;;;;5.60;3.13;;;27.50;37.20;;;;;;5069476;28;20962;-68
2022/05/07 13:33:53;;;;;;;7.83;3.53;;;27.30;37.70;;;;;;5068930;28;20468;-68
2022/05/07 13:36:21;;;;;;;5.03;2.90;;;27.70;37.40;;;;;;5069195;28;20452;-68
2022/05/07 13:38:49;;;;;;;5.93;3.37;;;28.10;38.30;;;;;;5069520;28;20487;-69